Latest Coastal Weather Observations for Low Head

IDT60701

Issued at 8:52 pm EDT Sunday 11 December 2016 (issued every 10 minutes, with the page automatically refreshed every 10 minutes)

About coastal observations | Map of coastal stations | Coastal observations for TAS | Marine services | Other Formats
Station Details ID: 091293 Name: LOW HEAD Lat: -41.05 Lon: 146.79 Height: 3.0 m
Data from the previous 72 hours. | See also: Recent months at Low Head
Date/Time
EDT
Temp
°C
Wind Pressure Rain since
9am
mm
Weather Cloud Vis
km
Sea
Height
m
Swell
Dir  Spd
kts
Gust
kts
hPa Trend Height
m
Period
s
Dir
11/08:30pm 15.6 N 4 5 1023.1 - 0.0 - - - - - - -
11/08:00pm 16.1 NNW 5 5 1022.9 - 0.0 - - - - - - -
11/07:30pm 16.5 NNW 5 6 1022.8 - 0.0 - - - - - - -
11/07:00pm 16.4 NNW 6 8 1022.4 - 0.0 - - - - - - -
11/06:30pm 16.9 NW 7 9 1022.3 - 0.0 - - - - - - -
11/06:00pm 17.4 NNW 7 8 1022.2 - 0.0 - - - - - - -
11/05:30pm 18.2 N 7 8 1022.1 - 0.0 - - - - - - -
11/05:00pm 17.8 NNW 7 9 1022.4 - 0.0 - - - - - - -
11/04:30pm 18.7 NNW 7 8 1022.3 - 0.0 - - - - - - -
11/04:00pm 18.3 N 7 9 1022.3 - 0.0 - - - - - - -
11/03:30pm 17.5 N 7 8 1022.4 - 0.0 - - - - - - -
11/03:00pm 18.2 N 6 7 1022.3 - 0.0 - - - - - - -
11/02:30pm 18.7 N 6 6 1022.7 - 0.0 - - - - - - -
11/02:00pm 18.0 N 6 7 1022.9 - 0.0 - - - - - - -
11/01:30pm 17.5 N 7 9 1023.1 - 0.0 - - - - - - -
11/01:00pm 16.9 N 9 10 1023.2 - 0.0 - - - - - - -
11/12:30pm 16.2 N 8 9 1023.3 - 0.0 - - - - - - -
11/12:00pm 15.9 NNE 9 10 1023.4 - 0.0 - - - - - - -
11/11:30am 15.8 NNE 9 11 1023.1 - 0.0 - - - - - - -
11/11:00am 17.1 N 7 8 1023.1 - 0.0 - - - - - - -
11/10:30am 16.2 S 8 11 1022.8 - 0.0 - - - - - - -
11/10:00am 16.3 SSW 10 12 1022.9 - 0.0 - - - - - - -
11/09:30am 15.2 S 11 12 1022.8 - 0.0 - - - - - - -
11/09:00am 14.2 S 9 11 1022.9 - 0.0 - - - - - - -
11/08:30am 13.6 S 8 9 1022.8 - 0.0 - - - - - - -
11/08:00am 13.3 S 6 7 1022.5 - 0.0 - - - - - - -
11/07:30am 12.4 SSE 5 7 1022.2 - 0.0 - - - - - - -
11/07:00am 11.9 SSE 5 6 1021.6 - 0.0 - - - - - - -
11/06:30am 11.6 SSW 7 9 1021.3 - 0.0 - - - - - - -
11/06:00am 11.8 WSW 13 14 1020.9 - 0.0 - - - - - - -
11/05:30am 12.0 WSW 15 17 1020.6 - 0.0 - - - - - - -
11/05:00am 12.1 WSW 11 13 1020.2 - 0.0 - - - - - - -
11/04:30am 11.6 SW 9 11 1020.0 - 0.0 - - - - - - -
11/04:00am 11.9 WSW 13 16 1019.9 - 0.0 - - - - - - -
11/03:30am 12.1 WSW 16 18 1019.8 - 0.0 - - - - - - -
11/03:00am 12.1 WSW 15 18 1019.8 - 0.0 - - - - - - -
11/02:30am 12.3 WSW 15 17 1019.7 - 0.0 - - - - - - -
11/02:00am 12.5 WSW 15 18 1020.0 - 0.0 - - - - - - -
11/01:30am 13.1 WSW 17 20 1019.8 - 0.0 - - - - - - -
11/01:00am 13.4 WSW 19 23 1019.6 - 0.0 - - - - - - -
11/12:30am 13.4 W 20 23 1019.5 - 0.0 - - - - - - -
11/12:00am 13.8 W 20 25 1019.7 - 0.0 - - - - - - -
 
Date/Time
EDT
Temp
°C
Wind Pressure Rain since
9am
mm
Weather Cloud Vis
km
Sea
Height
m
Swell
Dir  Spd
kts
Gust
kts
hPa Trend Height
m
Period
s
Dir
10/11:30pm 13.7 WSW 19 22 1019.6 - 0.0 - - - - - - -
10/11:00pm 13.8 WSW 18 21 1019.4 - 0.0 - - - - - - -
10/10:30pm 13.9 WSW 21 25 1019.6 - 0.0 - - - - - - -
10/10:00pm 14.6 W 21 25 1019.4 - 0.0 - - - - - - -
10/09:30pm 14.6 W 19 21 1019.0 - 0.0 - - - - - - -
10/09:00pm 14.9 W 20 25 1018.7 - 0.0 - - - - - - -
10/08:30pm 15.1 W 19 21 1018.2 - 0.0 - - - - - - -
10/08:00pm 15.2 W 19 22 1018.0 - 0.0 - - - - - - -
10/07:30pm 15.5 WNW 20 24 1017.5 - 0.0 - - - - - - -
10/07:00pm 15.7 WNW 21 25 1017.2 - 0.0 - - - - - - -
10/06:30pm 15.7 WNW 22 27 1017.2 - 0.0 - - - - - - -
10/06:00pm 16.2 WNW 23 29 1017.0 - 0.0 - - - - - - -
10/05:30pm 16.3 WNW 22 26 1017.0 - 0.0 - - - - - - -
10/05:00pm 16.4 WNW 25 29 1017.0 - 0.0 - - - - - - -
10/04:30pm 16.4 WNW 24 29 1017.3 - 0.0 - - - - - - -
10/04:00pm 16.9 WNW 26 31 1017.5 - 0.0 - - - - - - -
10/03:30pm 16.9 NW 23 28 1017.7 - 0.0 - - - - - - -
10/03:00pm 16.5 NW 24 29 1018.0 - 0.0 - - - - - - -
10/02:30pm 16.4 NW 23 29 1018.4 - 0.0 - - - - - - -
10/02:00pm 16.5 WNW 25 30 1018.6 - 0.0 - - - - - - -
10/01:30pm 16.6 WNW 24 29 1018.6 - 0.0 - - - - - - -
10/01:00pm 16.5 WNW 24 28 1018.7 - 0.0 - - - - - - -
10/12:30pm 16.4 WNW 23 27 1019.0 - 0.0 - - - - - - -
10/12:00pm 16.0 WNW 21 26 1019.0 - 0.0 - - - - - - -
10/11:30am 15.5 WNW 22 25 1019.5 - 0.0 - - - - - - -
10/11:00am 15.3 WNW 20 24 1019.4 - 0.0 - - - - - - -
10/10:30am 14.6 WNW 19 25 1019.5 - 0.0 - - - - - - -
10/10:00am 14.1 W 19 22 1019.7 - 0.0 - - - - - - -
10/09:30am 13.8 W 19 23 1019.6 - 0.0 - - - - - - -
10/09:00am 13.5 W 19 22 1019.6 - 0.0 - - - - - - -
10/08:30am 13.4 W 23 26 1019.2 - 0.0 - - - - - - -
10/08:00am 13.1 W 21 24 1019.1 - 0.0 - - - - - - -
10/07:30am 12.8 W 19 23 1018.8 - 0.0 - - - - - - -
10/07:00am 12.7 W 20 23 1018.5 - 0.0 - - - - - - -
10/06:30am 12.1 W 20 23 1018.1 - 0.0 - - - - - - -
10/06:00am 11.8 WSW 14 19 1018.0 - 0.0 - - - - - - -
10/05:30am 11.4 WSW 12 16 1017.6 - 0.0 - - - - - - -
10/05:00am 11.7 WSW 14 19 1017.4 - 0.0 - - - - - - -
10/04:30am 11.0 WSW 13 15 1017.2 - 0.0 - - - - - - -
10/04:00am 10.9 WSW 13 16 1017.1 - 0.0 - - - - - - -
10/03:30am 10.7 WSW 12 14 1017.4 - 0.0 - - - - - - -
10/03:00am 11.0 WSW 15 17 1017.4 - 0.0 - - - - - - -
10/02:30am 10.8 WSW 15 17 1017.4 - 0.0 - - - - - - -
10/02:00am 11.1 WSW 14 17 1017.2 - 0.0 - - - - - - -
10/01:30am 11.4 WSW 16 19 1017.4 - 0.0 - - - - - - -
10/01:00am 12.0 WSW 19 23 1017.5 - 0.0 - - - - - - -
10/12:30am 11.8 WSW 12 15 1017.4 - 0.0 - - - - - - -
10/12:00am 11.5 WSW 15 18 1017.3 - 0.0 - - - - - - -
 
Date/Time
EDT
Temp
°C
Wind Pressure Rain since
9am
mm
Weather Cloud Vis
km
Sea
Height
m
Swell
Dir  Spd
kts
Gust
kts
hPa Trend Height
m
Period
s
Dir
09/11:30pm 11.9 WSW 15 20 1017.3 - 0.0 - - - - - - -
09/11:00pm 11.7 WSW 16 19 1017.3 - 0.0 - - - - - - -
09/10:30pm 12.0 WSW 17 21 1017.1 - 0.0 - - - - - - -
09/10:00pm 12.3 WSW 20 24 1016.7 - 0.0 - - - - - - -
09/09:30pm 12.4 WSW 14 18 1016.3 - 0.0 - - - - - - -
09/09:00pm 12.7 WSW 18 22 1015.7 - 0.0 - - - - - - -
09/08:30pm 13.2 WSW 23 29 1015.1 - 0.0 - - - - - - -
09/08:00pm 13.6 WSW 26 31 1014.6 - 0.0 - - - - - - -
09/07:30pm 14.0 WSW 25 31 1013.8 - 0.0 - - - - - - -
09/07:00pm 14.3 W 25 29 1013.8 - 0.0 - - - - - - -
09/06:30pm 14.7 WSW 29 34 1012.5 - 0.0 - - - - - - -
09/06:00pm 15.1 W 25 30 1012.3 - 0.0 - - - - - - -
09/05:30pm 15.0 W 26 30 1011.9 - 0.0 - - - - - - -
09/05:00pm 15.2 W 28 32 1011.5 - 0.0 - - - - - - -
09/04:30pm 15.4 W 30 34 1010.9 - 0.0 - - - - - - -
09/04:00pm 15.4 W 29 35 1010.5 - 0.0 - - - - - - -
09/03:30pm 16.3 WNW 28 32 1010.6 - 0.0 - - - - - - -
09/03:00pm 15.5 WNW 29 34 1010.3 - 0.0 - - - - - - -
09/02:30pm 16.4 WNW 24 29 1010.0 - 0.0 - - - - - - -
09/02:00pm 16.3 W 23 27 1009.6 - 0.0 - - - - - - -
09/01:30pm 15.9 W 21 26 1009.4 - 0.0 - - - - - - -
09/01:00pm 15.2 WSW 25 31 1008.9 - 0.0 - - - - - - -
09/12:30pm 15.7 WSW 23 29 1008.8 - 0.0 - - - - - - -
09/12:09pm 15.3 WSW 21 28 1008.5 - 0.0 - - - - - - -
09/12:02pm 16.0 WSW 21 28 1008.5 - 0.0 - - - - - - -
09/12:00pm 15.6 W 21 28 1008.4 - 0.0 - - - - - - -
09/11:30am 14.9 WSW 23 27 1008.3 - 0.0 - - - - - - -
09/11:09am 15.0 WSW 18 28 1008.0 - 0.0 - - - - - - -
09/11:00am 15.2 WSW 21 27 1007.9 - 0.0 - - - - - - -
09/10:51am 14.8 WSW 17 27 1007.7 - 0.0 - - - - - - -
09/10:30am 14.4 WSW 19 24 1007.8 - 0.0 - - - - - - -
09/10:00am 14.1 WSW 19 25 1007.3 - 0.0 - - - - - - -
09/09:30am 13.5 WSW 21 27 1007.1 - 0.0 - - - - - - -
09/09:18am 12.9 WSW 19 24 1007.0 - 0.0 - - - - - - -
09/09:15am 13.2 WSW 19 24 1006.9 - 0.0 - - - - - - -
09/09:00am 12.4 W 18 24 1006.9 - 8.6 - - - - - - -
09/08:30am 11.9 WSW 17 21 1006.4 - 8.6 - - - - - - -
09/08:00am 11.8 WSW 18 22 1005.8 - 8.6 - - - - - - -
09/07:30am 11.5 WSW 21 25 1005.2 - 8.6 - - - - - - -
09/07:00am 11.2 WSW 19 24 1004.4 - 8.6 - - - - - - -
09/06:30am 11.0 WSW 19 24 1003.8 - 8.6 - - - - - - -
09/06:00am 10.9 WSW 22 25 1003.1 - 8.6 - - - - - - -
09/05:30am 11.1 WSW 24 29 1002.0 - 8.6 - - - - - - -
09/05:00am 11.3 WSW 26 30 1001.3 - 8.6 - - - - - - -
09/04:30am 11.4 WSW 27 34 1000.4 - 8.6 - - - - - - -
09/04:00am 11.7 WSW 26 32 999.9 - 8.6 - - - - - - -
09/03:30am 11.9 WSW 26 31 999.2 - 8.6 - - - - - - -
09/03:00am 12.1 WSW 26 32 998.8 - 8.6 - - - - - - -
09/02:30am 12.3 WSW 27 31 998.2 - 8.6 - - - - - - -
09/02:00am 12.5 WSW 28 33 997.6 - 8.6 - - - - - - -
09/01:30am 12.6 W 28 34 997.3 - 8.6 - - - - - - -
09/01:00am 12.8 W 29 34 996.8 - 8.6 - - - - - - -
09/12:30am 13.1 W 28 35 996.3 - 8.6 - - - - - - -
09/12:00am 13.3 W 30 37 995.8 - 8.6 - - - - - - -
 
Date/Time
EDT
Temp
°C
Wind Pressure Rain since
9am
mm
Weather Cloud Vis
km
Sea
Height
m
Swell
Dir  Spd
kts
Gust
kts
hPa Trend Height
m
Period
s
Dir
08/11:30pm 13.7 W 32 37 995.0 - 8.6 - - - - - - -
08/11:00pm 13.4 W 28 35 995.0 - 8.6 - - - - - - -
08/10:30pm 13.6 W 28 35 994.1 - 8.6 - - - - - - -
08/10:00pm 13.7 WNW 30 36 993.7 - 8.6 - - - - - - -
08/09:30pm 13.7 WNW 29 35 993.2 - 8.6 - - - - - - -
08/09:00pm 13.8 WNW 30 36 992.6 - 8.6 - - - - - - -

Other Formats:

Comma delimited format used in spreadsheet applications
http://www.bom.gov.au/fwo/IDT60701/IDT60701.95964.axf

JavaScript Object Notation format (JSON) in row-major order
http://www.bom.gov.au/fwo/IDT60701/IDT60701.95964.json